createdAt,value
2023-03-01T00:01:34.033Z,1.94
2023-03-01T00:04:02.310Z,2.01
2023-03-01T00:06:31.796Z,2.05
2023-03-01T00:08:59.653Z,2.10
2023-03-01T00:11:29.231Z,2.12
2023-03-01T00:14:00.289Z,2.13
2023-03-01T00:16:31.140Z,2.12
2023-03-01T00:18:59.739Z,2.13
2023-03-01T00:21:28.345Z,2.13
2023-03-01T00:23:57.557Z,2.14
2023-03-01T00:26:26.602Z,2.15
2023-03-01T00:28:54.707Z,2.14
2023-03-01T00:31:25.267Z,2.12
2023-03-01T00:33:57.889Z,2.12
2023-03-01T00:36:26.982Z,2.10
2023-03-01T00:38:55.603Z,2.10
2023-03-01T00:41:25.095Z,2.08
2023-03-01T00:43:52.701Z,2.07
2023-03-01T00:46:21.688Z,2.07
2023-03-01T00:48:49.599Z,2.04
2023-03-01T00:51:18.983Z,2.06
2023-03-01T00:53:47.778Z,2.04
2023-03-01T00:56:16.635Z,2.03
2023-03-01T00:58:45.797Z,2.02
2023-03-01T01:01:19.088Z,2.00
2023-03-01T01:03:48.515Z,1.99
2023-03-01T01:06:18.131Z,2.00
2023-03-01T01:08:45.884Z,1.98
2023-03-01T01:11:14.281Z,1.97
2023-03-01T01:13:42.643Z,1.95
2023-03-01T01:16:12.141Z,1.89
2023-03-01T01:18:40.121Z,1.89
2023-03-01T01:21:08.934Z,1.88
2023-03-01T01:23:37.014Z,1.86
2023-03-01T01:26:09.270Z,1.81
2023-03-01T01:28:37.201Z,1.79
2023-03-01T01:31:05.419Z,1.80
2023-03-01T01:33:35.035Z,1.78
2023-03-01T01:36:02.891Z,1.80
2023-03-01T01:38:30.586Z,1.76
2023-03-01T01:40:58.658Z,1.77
2023-03-01T01:43:28.146Z,1.81
2023-03-01T01:45:57.652Z,1.80
2023-03-01T01:48:41.158Z,1.79
2023-03-01T01:51:14.856Z,1.79
2023-03-01T01:53:44.346Z,1.77
2023-03-01T01:56:13.264Z,1.76
2023-03-01T01:58:41.716Z,1.78
2023-03-01T02:01:09.747Z,1.79
2023-03-01T02:03:43.216Z,1.79
2023-03-01T02:06:19.522Z,1.79
2023-03-01T02:08:48.230Z,1.77
2023-03-01T02:11:16.577Z,1.77
2023-03-01T02:13:44.936Z,1.73
2023-03-01T02:16:14.911Z,1.75
2023-03-01T02:18:43.567Z,1.75
2023-03-01T02:21:23.006Z,1.70
2023-03-01T02:23:50.760Z,1.73
2023-03-01T02:26:22.571Z,1.72
2023-03-01T02:28:52.634Z,1.71
2023-03-01T02:31:39.754Z,1.68
2023-03-01T02:34:08.745Z,1.67
2023-03-01T02:36:38.538Z,1.70
2023-03-01T02:39:08.546Z,1.70
2023-03-01T02:41:38.849Z,1.70
2023-03-01T02:44:09.412Z,1.66
2023-03-01T02:46:44.711Z,1.70
2023-03-01T02:49:22.315Z,1.64
2023-03-01T02:52:03.942Z,1.63
2023-03-01T02:54:39.254Z,1.61
2023-03-01T02:57:08.365Z,1.60
2023-03-01T02:59:40.304Z,1.58
2023-03-01T03:02:08.392Z,1.57
2023-03-01T03:04:36.543Z,1.55
2023-03-01T03:07:04.286Z,1.53
2023-03-01T03:09:31.965Z,1.50
2023-03-01T03:11:59.706Z,1.48
2023-03-01T03:14:27.466Z,1.44
2023-03-01T03:16:56.631Z,1.45
2023-03-01T03:19:24.345Z,1.42
2023-03-01T03:21:52.185Z,1.41
2023-03-01T03:24:20.176Z,1.39
2023-03-01T03:26:47.898Z,1.37
2023-03-01T03:29:15.630Z,1.35
2023-03-01T03:31:43.316Z,1.32
2023-03-01T03:34:18.853Z,1.30
2023-03-01T03:36:46.737Z,1.26
2023-03-01T03:39:14.378Z,1.28
2023-03-01T03:41:42.028Z,1.27
2023-03-01T03:44:09.758Z,1.22
2023-03-01T03:46:37.480Z,1.19
2023-03-01T03:49:05.174Z,1.18
2023-03-01T03:51:34.208Z,1.15
2023-03-01T03:54:01.934Z,1.13
2023-03-01T03:56:29.988Z,1.09
2023-03-01T03:58:57.888Z,1.08
2023-03-01T04:01:25.851Z,1.08
2023-03-01T04:03:55.470Z,1.07
2023-03-01T04:06:23.267Z,1.05
2023-03-01T04:09:01.031Z,1.03
2023-03-01T04:11:28.875Z,1.00
2023-03-01T04:13:58.370Z,1.00
2023-03-01T04:16:26.557Z,0.96
2023-03-01T04:18:59.013Z,0.95
2023-03-01T04:21:26.818Z,0.93
2023-03-01T04:23:55.853Z,0.90
2023-03-01T04:26:23.503Z,0.89
2023-03-01T04:28:51.766Z,0.87
2023-03-01T04:31:22.251Z,0.88
2023-03-01T04:33:52.581Z,0.87
2023-03-01T04:36:21.797Z,0.88
2023-03-01T04:38:49.716Z,0.88
2023-03-01T04:41:21.643Z,0.87
2023-03-01T04:43:50.353Z,0.87
2023-03-01T04:46:20.521Z,0.85
2023-03-01T04:48:48.856Z,0.83
2023-03-01T04:51:17.018Z,0.82
2023-03-01T04:53:45.456Z,0.79
2023-03-01T04:56:14.918Z,0.78
2023-03-01T04:58:44.475Z,0.79
2023-03-01T05:01:16.061Z,0.78
2023-03-01T05:03:45.021Z,0.75
2023-03-01T05:06:13.299Z,0.72
2023-03-01T05:08:41.929Z,0.75
2023-03-01T05:11:10.315Z,0.75
2023-03-01T05:13:39.005Z,0.74
2023-03-01T05:16:12.312Z,0.72
2023-03-01T05:18:41.154Z,0.72
2023-03-01T05:21:10.556Z,0.70
2023-03-01T05:23:38.856Z,0.66
2023-03-01T05:26:16.065Z,0.63
2023-03-01T05:28:50.991Z,0.63
2023-03-01T05:31:20.238Z,0.61
2023-03-01T05:33:48.043Z,0.56
2023-03-01T05:36:15.740Z,0.56
2023-03-01T05:38:43.360Z,0.54
2023-03-01T05:41:16.399Z,0.53
2023-03-01T05:43:45.875Z,0.53
2023-03-01T05:46:14.312Z,0.49
2023-03-01T05:48:43.753Z,0.50
2023-03-01T05:51:11.547Z,0.48
2023-03-01T05:53:39.296Z,0.45
2023-03-01T05:56:07.820Z,0.47
2023-03-01T05:58:35.622Z,0.47
2023-03-01T06:01:03.335Z,0.45
2023-03-01T06:03:31.045Z,0.44
2023-03-01T06:06:00.502Z,0.46
2023-03-01T06:08:28.810Z,0.44
2023-03-01T06:10:56.859Z,0.44
2023-03-01T06:13:25.087Z,0.43
2023-03-01T06:15:52.910Z,0.41
2023-03-01T06:18:20.797Z,0.40
2023-03-01T06:20:55.215Z,0.41
2023-03-01T06:23:24.730Z,0.39
2023-03-01T06:25:52.792Z,0.38
2023-03-01T06:28:20.665Z,0.38
2023-03-01T06:30:48.331Z,0.39
2023-03-01T06:33:16.067Z,0.38
2023-03-01T06:35:44.015Z,0.39
2023-03-01T06:38:11.777Z,0.38
2023-03-01T06:40:40.940Z,0.38
2023-03-01T06:43:08.978Z,0.40
2023-03-01T06:45:36.696Z,0.41
2023-03-01T06:48:06.076Z,0.41
2023-03-01T06:50:34.002Z,0.39
2023-03-01T06:53:01.907Z,0.38
2023-03-01T06:55:29.737Z,0.37
2023-03-01T06:57:59.445Z,0.38
2023-03-01T07:00:28.546Z,0.41
2023-03-01T07:02:56.757Z,0.40
2023-03-01T07:05:24.473Z,0.45
2023-03-01T07:07:52.101Z,0.45
2023-03-01T07:10:19.871Z,0.48
2023-03-01T07:12:48.184Z,0.52
2023-03-01T07:15:17.576Z,0.58
2023-03-01T07:17:45.737Z,0.64
2023-03-01T07:20:14.198Z,0.67
2023-03-01T07:22:43.142Z,0.72
2023-03-01T07:25:11.502Z,0.79
2023-03-01T07:27:39.354Z,0.85
2023-03-01T07:30:08.479Z,0.88
2023-03-01T07:32:37.653Z,0.91
2023-03-01T07:35:06.170Z,0.97
2023-03-01T07:37:33.828Z,1.00
2023-03-01T07:40:01.634Z,1.00
2023-03-01T07:42:29.293Z,1.05
2023-03-01T07:44:56.975Z,1.11
2023-03-01T07:47:24.673Z,1.18
2023-03-01T07:49:53.833Z,1.24
2023-03-01T07:52:21.594Z,1.33
2023-03-01T07:54:49.319Z,1.41
2023-03-01T07:57:17.157Z,1.47
2023-03-01T07:59:45.098Z,1.53
2023-03-01T08:02:12.906Z,1.62
2023-03-01T08:04:40.582Z,1.71
2023-03-01T08:07:09.688Z,1.79
2023-03-01T08:09:38.184Z,1.87
2023-03-01T08:12:06.532Z,1.94
2023-03-01T08:14:34.280Z,2.02
2023-03-01T08:17:03.798Z,2.10
2023-03-01T08:19:31.786Z,2.16
2023-03-01T08:22:00.867Z,2.24
2023-03-01T08:24:30.078Z,2.31
2023-03-01T08:26:58.001Z,2.38
2023-03-01T08:29:26.170Z,2.43
2023-03-01T08:31:54.034Z,2.48
2023-03-01T08:34:21.891Z,2.56
2023-03-01T08:36:51.072Z,2.62
2023-03-01T08:39:20.424Z,2.70
2023-03-01T08:41:49.581Z,2.76
2023-03-01T08:44:18.594Z,2.85
2023-03-01T08:46:47.566Z,2.96
2023-03-01T08:49:16.502Z,3.02
2023-03-01T08:51:45.139Z,3.11
2023-03-01T08:54:14.138Z,3.17
2023-03-01T08:56:41.898Z,3.24
2023-03-01T08:59:11.582Z,3.33
2023-03-01T09:01:39.272Z,3.40
2023-03-01T09:04:07.287Z,3.50
2023-03-01T09:06:35.656Z,3.60
2023-03-01T09:09:03.925Z,3.66
2023-03-01T09:11:31.624Z,3.75
2023-03-01T09:13:59.301Z,3.84
2023-03-01T09:16:28.475Z,3.87
2023-03-01T09:18:56.823Z,3.93
2023-03-01T09:21:39.051Z,3.95
2023-03-01T09:24:09.053Z,3.98
2023-03-01T09:26:36.790Z,4.04
2023-03-01T09:29:04.499Z,4.12
2023-03-01T09:31:33.559Z,4.23
2023-03-01T09:34:01.280Z,4.27
2023-03-01T09:36:29.838Z,4.39
2023-03-01T09:38:57.849Z,4.44
2023-03-01T09:41:48.417Z,4.42
2023-03-01T09:44:23.903Z,4.49
2023-03-01T09:46:53.373Z,4.58
2023-03-01T09:49:23.643Z,4.69
2023-03-01T09:51:58.485Z,4.75
2023-03-01T09:54:26.454Z,4.89
2023-03-01T09:57:02.270Z,4.99
2023-03-01T09:59:35.086Z,5.11
2023-03-01T10:02:18.702Z,5.15
2023-03-01T10:04:49.732Z,5.20
2023-03-01T10:07:24.764Z,5.25
2023-03-01T10:09:52.460Z,5.34
2023-03-01T10:12:24.264Z,5.40
2023-03-01T10:14:57.920Z,5.47
2023-03-01T10:17:35.834Z,5.53
2023-03-01T10:20:18.357Z,5.65
2023-03-01T10:22:51.373Z,5.74
2023-03-01T10:25:25.812Z,5.81
2023-03-01T10:27:55.015Z,5.95
2023-03-01T10:30:25.474Z,6.07
2023-03-01T10:32:55.404Z,6.17
2023-03-01T10:35:25.366Z,6.23
2023-03-01T10:38:00.681Z,6.32
2023-03-01T10:40:28.427Z,6.35
2023-03-01T10:43:00.059Z,6.23
2023-03-01T10:45:36.857Z,6.26
2023-03-01T10:48:08.350Z,6.28
2023-03-01T10:50:39.213Z,6.33
2023-03-01T10:53:22.584Z,6.34
2023-03-01T10:55:59.469Z,6.32
2023-03-01T10:58:27.205Z,6.32
2023-03-01T11:00:55.936Z,6.40
2023-03-01T11:03:27.543Z,6.46
2023-03-01T11:06:05.031Z,6.53
2023-03-01T11:08:35.388Z,6.54
2023-03-01T11:11:18.959Z,6.51
2023-03-01T11:13:55.684Z,6.43
2023-03-01T11:16:29.668Z,6.41
2023-03-01T11:19:21.745Z,6.42
2023-03-01T11:22:08.108Z,6.49
2023-03-01T11:24:43.802Z,6.62
2023-03-01T11:27:18.806Z,6.68
2023-03-01T11:29:52.089Z,6.65
2023-03-01T11:32:20.989Z,6.61
2023-03-01T11:34:55.633Z,6.68
2023-03-01T11:37:31.055Z,6.89
2023-03-01T11:40:06.443Z,7.07
2023-03-01T11:42:45.182Z,7.12
2023-03-01T11:45:14.544Z,7.17
2023-03-01T11:48:07.273Z,7.22
2023-03-01T11:50:42.811Z,7.39
2023-03-01T11:53:34.702Z,7.61
2023-03-01T11:56:10.878Z,7.71
2023-03-01T11:58:53.559Z,7.76
2023-03-01T12:01:31.262Z,7.76
2023-03-01T12:04:19.699Z,7.70
2023-03-01T12:06:58.048Z,7.71
2023-03-01T12:09:49.972Z,7.80
2023-03-01T12:12:31.707Z,7.93
2023-03-01T12:15:17.879Z,8.08
2023-03-01T12:18:11.798Z,8.09
2023-03-01T12:20:44.616Z,8.13
2023-03-01T12:23:27.836Z,8.06
2023-03-01T12:25:59.058Z,8.00
2023-03-01T12:28:42.001Z,8.18
2023-03-01T12:34:12.036Z,8.21
2023-03-01T12:37:04.725Z,8.28
2023-03-01T12:39:42.196Z,8.34
2023-03-01T12:42:15.541Z,8.39
2023-03-01T12:44:56.518Z,8.40
2023-03-01T12:47:36.805Z,8.45
2023-03-01T12:50:12.856Z,8.46
2023-03-01T12:52:43.272Z,8.47
2023-03-01T12:55:28.495Z,8.51
2023-03-01T12:58:02.948Z,8.58
2023-03-01T13:00:34.025Z,8.60
2023-03-01T13:03:06.853Z,8.61
2023-03-01T13:05:42.826Z,8.68
2023-03-01T13:08:16.138Z,8.68
2023-03-01T13:10:46.759Z,8.63
2023-03-01T13:13:21.425Z,8.60
2023-03-01T13:15:50.170Z,8.58
2023-03-01T13:18:32.934Z,8.56
2023-03-01T13:21:03.655Z,8.64
2023-03-01T13:23:35.292Z,8.64
2023-03-01T13:26:13.382Z,8.61
2023-03-01T13:28:56.666Z,8.58
2023-03-01T13:32:01.676Z,8.52
2023-03-01T13:35:03.067Z,8.49
2023-03-01T13:37:39.474Z,8.37
2023-03-01T13:40:47.145Z,8.30
2023-03-01T13:43:32.256Z,8.29
2023-03-01T13:46:00.617Z,8.33
2023-03-01T13:48:30.824Z,8.42
2023-03-01T13:51:01.684Z,8.50
2023-03-01T13:53:33.870Z,8.64
2023-03-01T13:56:03.795Z,8.75
2023-03-01T13:58:32.945Z,8.86
2023-03-01T14:01:02.608Z,8.97
2023-03-01T14:03:31.827Z,9.05
2023-03-01T14:06:13.076Z,9.09
2023-03-01T14:08:43.605Z,9.10
2023-03-01T14:11:57.429Z,9.17
2023-03-01T14:14:40.069Z,9.24
2023-03-01T14:17:26.580Z,9.32
2023-03-01T14:19:58.345Z,9.35
2023-03-01T14:22:29.142Z,9.34
2023-03-01T14:25:00.193Z,9.34
2023-03-01T14:27:37.391Z,9.38
2023-03-01T14:30:13.476Z,9.37
2023-03-01T14:32:41.276Z,9.30
2023-03-01T14:35:22.195Z,9.30
2023-03-01T14:37:50.757Z,9.38
2023-03-01T14:40:30.810Z,9.38
2023-03-01T14:42:58.853Z,8.89
2023-03-01T14:45:28.176Z,8.80
2023-03-01T14:47:57.052Z,8.73
2023-03-01T14:50:27.266Z,8.68
2023-03-01T14:52:58.157Z,8.59
2023-03-01T14:55:31.399Z,8.47
2023-03-01T14:58:00.502Z,8.38
2023-03-01T15:00:31.928Z,8.31
2023-03-01T15:03:04.502Z,8.23
2023-03-01T15:05:33.750Z,8.17
2023-03-01T15:08:03.563Z,8.12
2023-03-01T15:10:34.286Z,8.08
2023-03-01T15:13:12.658Z,8.09
2023-03-01T15:15:43.853Z,7.99
2023-03-01T15:18:18.756Z,7.95
2023-03-01T15:20:47.100Z,7.90
2023-03-01T15:23:25.716Z,7.85
2023-03-01T15:25:58.456Z,7.76
2023-03-01T15:28:27.989Z,7.71
2023-03-01T15:30:59.490Z,7.65
2023-03-01T15:33:38.404Z,7.59
2023-03-01T15:36:34.075Z,7.47
2023-03-01T15:39:02.676Z,7.38
2023-03-01T15:41:34.126Z,7.33
2023-03-01T15:44:03.133Z,7.25
2023-03-01T15:46:33.764Z,7.22
2023-03-01T15:49:03.327Z,7.19
2023-03-01T15:51:33.930Z,7.16
2023-03-01T15:54:04.229Z,7.11
2023-03-01T15:56:33.604Z,7.10
2023-03-01T15:59:03.142Z,7.08
2023-03-01T16:01:33.200Z,7.05
2023-03-01T16:04:01.578Z,7.02
2023-03-01T16:06:29.668Z,7.00
2023-03-01T16:08:57.605Z,6.95
2023-03-01T16:11:25.260Z,6.94
2023-03-01T16:13:54.569Z,6.92
2023-03-01T16:16:23.558Z,6.90
2023-03-01T16:18:53.102Z,6.87
2023-03-01T16:21:23.740Z,6.85
2023-03-01T16:23:52.327Z,6.81
2023-03-01T16:26:21.438Z,6.78
2023-03-01T16:28:49.605Z,6.75
2023-03-01T16:31:21.434Z,6.71
2023-03-01T16:33:50.914Z,6.67
2023-03-01T16:36:20.403Z,6.64
2023-03-01T16:38:49.267Z,6.60
2023-03-01T16:41:18.159Z,6.56
2023-03-01T16:45:41.747Z,6.47
2023-03-01T16:48:09.534Z,6.44
2023-03-01T16:50:37.296Z,6.40
2023-03-01T16:53:05.140Z,6.36
2023-03-01T16:55:32.830Z,6.34
2023-03-01T16:58:00.544Z,6.30
2023-03-01T17:00:28.384Z,6.27
2023-03-01T17:02:57.571Z,6.24
2023-03-01T17:05:26.135Z,6.22
2023-03-01T17:07:56.564Z,6.21
2023-03-01T17:10:24.304Z,6.19
2023-03-01T17:12:52.202Z,6.17
2023-03-01T17:15:20.010Z,6.15
2023-03-01T17:17:51.855Z,6.11
2023-03-01T17:20:21.279Z,6.10
2023-03-01T17:22:48.967Z,6.05
2023-03-01T17:25:16.727Z,6.02
2023-03-01T17:27:44.459Z,5.96
2023-03-01T17:30:14.954Z,5.98
2023-03-01T17:32:42.834Z,5.92
2023-03-01T17:35:12.179Z,5.91
2023-03-01T17:37:46.405Z,5.88
2023-03-01T17:40:14.684Z,5.83
2023-03-01T17:42:42.398Z,5.79
2023-03-01T17:45:10.730Z,5.74
2023-03-01T17:47:38.442Z,5.73
2023-03-01T17:50:08.235Z,5.70
2023-03-01T17:52:36.118Z,5.67
2023-03-01T17:55:05.601Z,5.64
2023-03-01T17:57:33.316Z,5.60
2023-03-01T18:00:01.020Z,5.56
2023-03-01T18:02:28.829Z,5.53
2023-03-01T18:04:58.977Z,5.51
2023-03-01T18:07:27.630Z,5.48
2023-03-01T18:09:55.507Z,5.45
2023-03-01T18:12:24.591Z,5.43
2023-03-01T18:14:53.603Z,5.39
2023-03-01T18:17:23.067Z,5.37
2023-03-01T18:19:51.987Z,5.34
2023-03-01T18:22:19.693Z,5.33
2023-03-01T18:24:47.380Z,5.30
2023-03-01T18:27:15.081Z,5.27
2023-03-01T18:29:44.203Z,5.24
2023-03-01T18:32:11.879Z,5.21
2023-03-01T18:34:39.627Z,5.19
2023-03-01T18:37:09.980Z,5.17
2023-03-01T18:39:38.047Z,5.76
2023-03-01T18:42:06.036Z,5.90
2023-03-01T18:44:33.733Z,5.53
2023-03-01T18:47:03.031Z,5.40
2023-03-01T18:49:30.791Z,5.29
2023-03-01T18:51:58.502Z,5.20
2023-03-01T18:54:26.427Z,5.10
2023-03-01T18:56:54.084Z,5.12
2023-03-01T18:59:21.773Z,5.06
2023-03-01T19:01:49.490Z,5.00
2023-03-01T19:04:18.588Z,4.96
2023-03-01T19:06:46.323Z,4.91
2023-03-01T19:09:15.097Z,4.88
2023-03-01T19:11:42.839Z,5.46
2023-03-01T19:14:11.419Z,5.55
2023-03-01T19:16:39.252Z,5.17
2023-03-01T19:19:08.676Z,5.00
2023-03-01T19:21:37.619Z,4.71
2023-03-01T19:24:05.444Z,4.56
2023-03-01T19:26:33.704Z,4.43
2023-03-01T19:29:01.444Z,4.36
2023-03-01T19:31:29.922Z,4.29
2023-03-01T19:34:09.998Z,4.22
2023-03-01T19:36:39.771Z,4.15
2023-03-01T19:39:07.621Z,4.10
2023-03-01T19:41:35.342Z,4.05
2023-03-01T19:44:05.414Z,4.00
2023-03-01T19:46:33.641Z,3.96
2023-03-01T19:49:03.011Z,3.93
2023-03-01T19:51:30.642Z,3.89
2023-03-01T19:53:59.806Z,4.05
2023-03-01T19:56:27.555Z,4.10
2023-03-01T19:59:00.236Z,4.13
2023-03-01T20:01:29.815Z,4.13
2023-03-01T20:03:57.654Z,4.14
2023-03-01T20:06:25.712Z,4.13
2023-03-01T20:08:53.919Z,4.15
2023-03-01T20:11:23.178Z,4.11
2023-03-01T20:13:51.171Z,4.13
2023-03-01T20:16:20.613Z,4.13
2023-03-01T20:18:48.402Z,4.09
2023-03-01T20:21:23.889Z,4.09
2023-03-01T20:23:52.645Z,4.05
2023-03-01T20:26:20.945Z,4.06
2023-03-01T20:28:53.191Z,4.06
2023-03-01T20:31:22.816Z,4.03
2023-03-01T20:33:50.781Z,4.02
2023-03-01T20:36:18.446Z,4.00
2023-03-01T20:38:46.167Z,3.94
2023-03-01T20:41:14.827Z,3.96
2023-03-01T20:43:43.520Z,3.94
2023-03-01T20:46:14.934Z,3.94
2023-03-01T20:48:44.004Z,3.90
2023-03-01T20:51:13.255Z,3.89
2023-03-01T20:53:41.032Z,3.86
2023-03-01T20:56:09.996Z,3.83
2023-03-01T20:58:37.894Z,3.82
2023-03-01T21:01:06.922Z,3.82
2023-03-01T21:03:36.170Z,3.80
2023-03-01T21:06:06.172Z,3.79
2023-03-01T21:08:34.222Z,3.77
2023-03-01T21:11:02.725Z,3.75
2023-03-01T21:13:31.750Z,3.72
2023-03-01T21:16:03.280Z,3.70
2023-03-01T21:18:31.676Z,3.68
2023-03-01T21:21:01.578Z,3.67
2023-03-01T21:23:30.787Z,3.64
2023-03-01T21:26:03.094Z,3.63
2023-03-01T21:28:33.218Z,3.58
2023-03-01T21:31:05.977Z,3.57
2023-03-01T21:33:33.601Z,3.49
2023-03-01T21:36:04.135Z,3.52
2023-03-01T21:38:32.702Z,3.49
2023-03-01T21:41:00.367Z,3.45
2023-03-01T21:43:28.155Z,3.45
2023-03-01T21:45:56.013Z,3.46
2023-03-01T21:48:23.862Z,3.44
2023-03-01T21:50:56.547Z,3.45
2023-03-01T21:53:25.619Z,3.40
2023-03-01T21:55:53.743Z,3.39
2023-03-01T21:58:22.994Z,3.41
2023-03-01T22:00:50.811Z,3.34
2023-03-01T22:03:18.703Z,3.33
2023-03-01T22:05:55.832Z,3.39
2023-03-01T22:08:25.017Z,3.34
2023-03-01T22:10:53.147Z,3.34
2023-03-01T22:13:21.044Z,3.31
2023-03-01T22:15:49.085Z,3.30
2023-03-01T22:18:16.946Z,3.28
2023-03-01T22:20:44.927Z,3.24
2023-03-01T22:23:12.798Z,3.22
2023-03-01T22:25:45.034Z,3.20
2023-03-01T22:28:12.870Z,3.17
2023-03-01T22:30:40.764Z,3.14
2023-03-01T22:33:08.594Z,3.16
2023-03-01T22:35:36.417Z,3.14
2023-03-01T22:38:04.277Z,3.11
2023-03-01T22:40:32.095Z,3.06
2023-03-01T22:43:01.393Z,3.04
2023-03-01T22:45:32.162Z,3.06
2023-03-01T22:48:00.912Z,3.03
2023-03-01T22:50:28.823Z,3.02
2023-03-01T22:52:56.652Z,3.01
2023-03-01T22:55:24.478Z,3.00
2023-03-01T22:57:52.387Z,2.98
2023-03-01T23:00:22.258Z,2.99
2023-03-01T23:02:50.142Z,2.98
2023-03-01T23:05:18.027Z,2.95
2023-03-01T23:07:46.959Z,2.92
2023-03-01T23:10:16.041Z,2.90
2023-03-01T23:12:43.604Z,2.72
2023-03-01T23:15:11.770Z,2.61
2023-03-01T23:17:41.902Z,2.54
2023-03-01T23:20:10.871Z,2.50
2023-03-01T23:22:38.696Z,2.45
2023-03-01T23:25:07.367Z,2.42
2023-03-01T23:27:37.113Z,2.38
2023-03-01T23:30:05.770Z,2.36
2023-03-01T23:32:38.312Z,2.33
2023-03-01T23:35:08.113Z,2.31
2023-03-01T23:37:35.696Z,2.28
2023-03-01T23:40:05.821Z,2.28
2023-03-01T23:42:33.716Z,2.27
2023-03-01T23:45:01.391Z,2.26
2023-03-01T23:47:29.025Z,2.25
2023-03-01T23:49:57.316Z,2.23
2023-03-01T23:52:26.456Z,2.22
2023-03-01T23:54:53.959Z,2.19
2023-03-01T23:57:21.426Z,2.17
2023-03-01T23:59:48.930Z,2.15
